Sylvan Beach, Texas
Current Conditions -  °F | °C
As of 9:50 PM on Saturday 25 Oct 2014 (Local Time) from KEFD Reporting Station
Clear Clear  
Wind Chill: 68°   Ceiling: Unl
Heat Index: 68°   Visibility: 10mi
Dew Point: 61°   Wind: 3mph
Humidity: 78%   Direction: 190°S
Pressure: 30.12"   Gusts: NA
Location:  29.6785°N, 95.0483°W
Report Text: KEFD 260250Z 19003KT 10SM CLR 20/16 A3012
Loading
Personal Weather Stations






























Interactive Weather Map New forecast layout! Learn more

10-Day Weather Forecast

Advertisements
Track Severe Weather on mobile